Paradise Hot Springs, Idaho
Current Conditions -  °F | °C
As of 10:58 PM on Tuesday 21 Oct 2014 (Local Time) from KMUO Reporting Station
Clear Clear  
Wind Chill: 41°   Ceiling: Unl
Heat Index: 44°   Visibility: 10mi
Dew Point: 39°   Wind: 6mph
Humidity: 84%   Direction: 80°E
Pressure: 30.08"   Gusts: NA
Location:  43.2609°N, 115.781°W
Report Text: KMUO 220458Z AUTO 08005KT 10SM CLR 07/04 A3008 RMK AO2 SLP188 T00660040
Loading
Personal Weather Stations






























Interactive Weather Map
Tropical Storm Tracking
New forecast layout! Learn more

10-Day Weather Forecast

Advertisements
Track Severe Weather on mobile